Time;durP1;ratioP1;P1;durP2;ratioP2;P2;SDS_P1;SDS_P2;PMS_P1;PMS_P2;Temp;Humidity;BMP_temperature;BMP_pressure;BME280_temperature;BME280_humidity;BME280_pressure;Samples;Min_cycle;Max_cycle;Signal;HPM_P1;HPM_P2
2023/03/23 00:01:31;;;;;;;2.50;2.30;;;13.60;55.70;;;;;;5051337;28;20382;-72
2023/03/23 00:03:57;;;;;;;4.40;2.85;;;13.50;56.80;;;;;;5049712;28;20390;-72
2023/03/23 00:06:26;;;;;;;5.88;3.03;;;13.50;57.20;;;;;;5054563;28;20816;-73
2023/03/23 00:08:59;;;;;;;6.47;2.90;;;13.50;58.50;;;;;;5054895;28;20381;-72
2023/03/23 00:11:30;;;;;;;4.90;3.20;;;13.50;57.20;;;;;;5055028;28;20389;-73
2023/03/23 00:14:00;;;;;;;4.60;2.70;;;13.60;56.50;;;;;;5055533;28;20423;-72
2023/03/23 00:16:31;;;;;;;5.35;2.90;;;13.50;56.50;;;;;;5054317;28;20406;-73
2023/03/23 00:19:07;;;;;;;5.60;3.00;;;13.50;56.60;;;;;;5053166;28;20386;-73
2023/03/23 00:21:35;;;;;;;2.95;2.75;;;13.60;56.20;;;;;;5054696;28;20393;-73
2023/03/23 00:24:02;;;;;;;6.97;2.70;;;13.50;56.70;;;;;;5054523;28;20396;-73
2023/03/23 00:26:29;;;;;;;3.67;2.70;;;13.50;57.20;;;;;;5053995;28;20391;-73
2023/03/23 00:28:55;;;;;;;8.35;3.60;;;13.50;58.30;;;;;;5053857;28;20382;-72
2023/03/23 00:31:21;;;;;;;2.90;2.55;;;13.40;57.90;;;;;;5053541;28;20856;-72
2023/03/23 00:33:47;;;;;;;5.13;2.80;;;13.50;57.60;;;;;;5053721;28;20392;-72
2023/03/23 00:36:13;;;;;;;5.18;2.70;;;13.50;57.10;;;;;;5053907;28;20381;-72
2023/03/23 00:38:41;;;;;;;7.40;3.40;;;13.60;57.00;;;;;;5054128;28;20738;-74
2023/03/23 00:41:07;;;;;;;4.63;3.28;;;13.50;57.20;;;;;;5054306;28;20405;-72
2023/03/23 00:43:35;;;;;;;4.22;2.75;;;13.50;57.40;;;;;;5054013;28;20428;-73
2023/03/23 00:46:02;;;;;;;3.33;2.78;;;13.50;57.10;;;;;;5054678;28;20891;-72
2023/03/23 00:48:29;;;;;;;6.32;3.38;;;13.60;56.40;;;;;;5054566;28;20385;-72
2023/03/23 00:50:55;;;;;;;4.50;2.80;;;13.60;56.10;;;;;;5053164;28;20762;-72
2023/03/23 00:53:21;;;;;;;4.22;3.10;;;13.50;57.90;;;;;;5053466;28;20382;-72
2023/03/23 00:55:48;;;;;;;5.00;3.00;;;13.40;58.90;;;;;;5053953;28;20394;-73
2023/03/23 00:58:15;;;;;;;7.32;3.95;;;13.40;58.20;;;;;;5053795;28;20471;-72
2023/03/23 01:00:41;;;;;;;5.13;2.92;;;13.50;57.80;;;;;;5054040;28;20792;-73
2023/03/23 01:03:08;;;;;;;5.07;2.80;;;13.50;58.40;;;;;;5053992;28;20444;-72
2023/03/23 01:05:35;;;;;;;5.07;4.25;;;13.50;57.30;;;;;;5053435;28;20396;-72
2023/03/23 01:08:01;;;;;;;6.25;3.55;;;13.50;56.90;;;;;;5053138;28;20385;-72
2023/03/23 01:10:28;;;;;;;7.20;3.20;;;13.50;57.20;;;;;;5053533;28;20412;-72
2023/03/23 01:12:54;;;;;;;7.47;3.90;;;13.50;56.80;;;;;;5053847;28;20427;-71
2023/03/23 01:15:20;;;;;;;3.50;3.20;;;13.60;56.90;;;;;;5053401;28;20930;-73
2023/03/23 01:17:47;;;;;;;4.18;3.00;;;13.50;57.60;;;;;;5052350;28;20877;-73
2023/03/23 01:20:15;;;;;;;4.85;3.00;;;13.40;57.60;;;;;;5052873;28;20477;-73
2023/03/23 01:22:42;;;;;;;7.60;3.90;;;13.50;57.20;;;;;;5052455;28;20524;-73
2023/03/23 01:25:09;;;;;;;5.93;3.10;;;13.50;57.10;;;;;;5051512;28;20484;-73
2023/03/23 01:27:35;;;;;;;7.80;3.20;;;13.40;56.60;;;;;;5052910;28;20378;-72
2023/03/23 01:30:00;;;;;;;4.45;2.78;;;13.40;57.40;;;;;;5052873;28;20463;-73
2023/03/23 01:32:26;;;;;;;3.67;2.83;;;13.50;56.50;;;;;;5052343;28;20386;-73
2023/03/23 01:34:52;;;;;;;5.63;3.10;;;13.60;56.40;;;;;;5052732;28;20374;-73
2023/03/23 01:37:19;;;;;;;4.20;2.83;;;13.60;56.30;;;;;;5051288;28;20394;-72
2023/03/23 01:39:45;;;;;;;5.03;2.90;;;13.50;57.10;;;;;;5052653;28;20385;-73
2023/03/23 01:42:11;;;;;;;7.07;3.40;;;13.40;58.50;;;;;;5052277;28;20947;-73
2023/03/23 01:44:36;;;;;;;5.43;3.60;;;13.40;59.40;;;;;;5052587;28;20878;-72
2023/03/23 01:47:02;;;;;;;4.93;3.00;;;13.40;60.80;;;;;;5051516;28;20874;-72
2023/03/23 01:49:36;;;;;;;5.30;3.70;;;13.30;63.10;;;;;;5051542;28;20501;-72
2023/03/23 01:52:10;;;;;;;5.88;3.60;;;13.30;63.70;;;;;;5053189;28;20385;-72
2023/03/23 01:54:38;;;;;;;8.63;3.10;;;13.20;65.00;;;;;;5052339;28;20937;-73
2023/03/23 01:57:08;;;;;;;4.40;3.35;;;13.20;65.10;;;;;;5053457;28;20384;-73
2023/03/23 01:59:35;;;;;;;5.38;3.97;;;13.20;66.00;;;;;;5052636;28;20389;-74
2023/03/23 02:02:01;;;;;;;6.97;4.50;;;13.10;68.00;;;;;;5052474;28;20381;-73
2023/03/23 02:04:28;;;;;;;6.30;3.97;;;13.00;70.20;;;;;;5052432;28;20469;-72
2023/03/23 02:06:57;;;;;;;4.20;3.35;;;13.00;69.60;;;;;;5052458;28;20432;-72
2023/03/23 02:09:27;;;;;;;5.80;3.40;;;13.00;71.80;;;;;;5052189;28;20500;-73
2023/03/23 02:11:53;;;;;;;5.50;3.67;;;12.80;74.70;;;;;;5052591;28;20463;-73
2023/03/23 02:14:20;;;;;;;5.93;3.57;;;12.70;77.10;;;;;;5051962;28;20385;-72
2023/03/23 02:17:00;;;;;;;4.47;3.15;;;12.70;76.30;;;;;;5052375;28;20765;-73
2023/03/23 02:20:06;;;;;;;3.58;2.90;;;12.90;75.20;;;;;;5051908;28;20890;-72
2023/03/23 02:22:53;;;;;;;4.55;3.55;;;13.00;74.10;;;;;;5050069;28;20765;-73
2023/03/23 02:25:59;;;;;;;7.20;4.00;;;12.70;77.50;;;;;;5051175;28;20385;-73
2023/03/23 02:28:37;;;;;;;5.85;4.40;;;12.80;77.10;;;;;;5052209;28;20468;-72
2023/03/23 02:31:16;;;;;;;7.05;4.68;;;12.80;76.90;;;;;;5052230;28;20412;-72
2023/03/23 02:34:05;;;;;;;5.90;3.88;;;12.70;79.00;;;;;;5052073;28;20431;-73
2023/03/23 02:36:53;;;;;;;6.00;4.00;;;12.60;79.60;;;;;;5051896;28;20742;-73
2023/03/23 02:39:21;;;;;;;6.15;4.47;;;12.60;78.50;;;;;;5051750;28;20870;-72
2023/03/23 02:41:55;;;;;;;7.95;5.10;;;12.70;77.90;;;;;;5051462;28;20397;-72
2023/03/23 02:44:22;;;;;;;5.30;3.70;;;12.50;79.50;;;;;;5051716;28;20522;-73
2023/03/23 02:46:50;;;;;;;6.10;3.80;;;12.60;80.00;;;;;;5051897;28;20435;-72
2023/03/23 02:49:17;;;;;;;7.10;3.30;;;12.50;80.40;;;;;;5051631;28;20948;-73
2023/03/23 02:51:46;;;;;;;9.70;4.72;;;12.40;82.40;;;;;;5051338;28;20381;-71
2023/03/23 02:54:12;;;;;;;9.10;3.93;;;12.40;83.30;;;;;;5051903;28;20377;-73
2023/03/23 02:56:40;;;;;;;5.68;3.65;;;12.30;85.10;;;;;;5051605;28;20941;-72
2023/03/23 02:59:06;;;;;;;6.97;3.03;;;12.30;85.00;;;;;;5050870;28;20758;-72
2023/03/23 03:01:35;;;;;;;3.73;3.30;;;12.30;85.00;;;;;;5051127;28;20377;-73
2023/03/23 03:04:12;;;;;;;7.50;3.20;;;12.40;83.90;;;;;;5050769;28;20869;-73
2023/03/23 03:07:05;;;;;;;5.13;3.30;;;12.30;84.00;;;;;;5050845;28;20769;-72
2023/03/23 03:09:42;;;;;;;8.50;3.60;;;12.30;84.10;;;;;;5050726;28;20417;-73
2023/03/23 03:12:33;;;;;;;5.47;3.50;;;12.30;84.20;;;;;;5050494;28;20374;-72
2023/03/23 03:15:08;;;;;;;4.50;3.55;;;12.30;82.70;;;;;;5050802;28;20798;-73
2023/03/23 03:17:40;;;;;;;6.00;3.20;;;12.40;80.50;;;;;;5050554;28;20386;-71
2023/03/23 03:20:11;;;;;;;5.70;3.20;;;12.40;79.10;;;;;;5050741;28;20382;-72
2023/03/23 03:22:41;;;;;;;5.47;3.42;;;12.40;79.30;;;;;;5050162;28;20869;-71
2023/03/23 03:25:08;;;;;;;4.60;3.10;;;12.50;78.80;;;;;;5051020;28;20377;-71
2023/03/23 03:27:34;;;;;;;3.65;2.90;;;12.40;78.60;;;;;;5050482;28;20414;-72
2023/03/23 03:30:05;;;;;;;4.22;3.50;;;12.50;77.20;;;;;;5050511;28;20393;-72
2023/03/23 03:32:38;;;;;;;4.07;3.65;;;12.60;76.40;;;;;;5050523;28;20428;-73
2023/03/23 03:35:05;;;;;;;5.20;3.47;;;12.60;76.00;;;;;;5051143;28;20389;-72
2023/03/23 03:37:37;;;;;;;3.95;2.97;;;12.60;74.00;;;;;;5050273;28;20493;-71
2023/03/23 03:40:10;;;;;;;3.47;2.87;;;12.70;74.30;;;;;;5052015;28;20389;-73
2023/03/23 03:42:37;;;;;;;8.48;3.63;;;12.70;72.60;;;;;;5054287;28;20476;-73
2023/03/23 03:45:02;;;;;;;5.30;3.10;;;12.70;73.40;;;;;;5054867;28;20392;-72
2023/03/23 03:47:28;;;;;;;4.10;3.13;;;12.70;73.10;;;;;;5054562;28;20385;-72
2023/03/23 03:49:54;;;;;;;5.63;2.70;;;12.50;74.50;;;;;;5054479;28;20750;-73
2023/03/23 03:52:19;;;;;;;3.40;3.10;;;12.60;74.80;;;;;;5054385;28;20396;-73
2023/03/23 03:54:46;;;;;;;5.85;3.70;;;12.50;74.90;;;;;;5054367;28;20377;-72
2023/03/23 03:57:11;;;;;;;5.50;4.33;;;12.50;74.80;;;;;;5053587;28;20385;-74
2023/03/23 03:59:37;;;;;;;3.87;3.40;;;12.60;73.70;;;;;;5054351;28;20892;-73
2023/03/23 04:02:03;;;;;;;4.03;3.43;;;12.50;74.50;;;;;;5054091;28;20475;-73
2023/03/23 04:04:29;;;;;;;6.80;3.70;;;12.50;75.10;;;;;;5054289;28;20381;-73
2023/03/23 04:06:55;;;;;;;3.47;2.83;;;12.50;73.60;;;;;;5054221;28;20476;-73
2023/03/23 04:09:21;;;;;;;6.23;2.80;;;12.40;75.30;;;;;;5054460;28;20405;-73
2023/03/23 04:11:46;;;;;;;5.25;3.45;;;12.40;74.90;;;;;;5053805;28;21036;-74
2023/03/23 04:14:12;;;;;;;6.40;2.95;;;12.30;74.40;;;;;;5054079;28;20392;-73
2023/03/23 04:16:37;;;;;;;3.28;2.97;;;12.50;72.50;;;;;;5053937;28;20412;-73
2023/03/23 04:19:03;;;;;;;5.50;3.40;;;12.60;70.90;;;;;;5053904;28;20415;-73
2023/03/23 04:21:29;;;;;;;5.70;3.50;;;12.60;71.10;;;;;;5053483;28;20480;-75
2023/03/23 04:24:00;;;;;;;4.00;3.40;;;12.70;69.40;;;;;;5053825;28;20373;-73
2023/03/23 04:26:28;;;;;;;3.92;2.70;;;12.70;68.90;;;;;;5053886;28;20409;-72
2023/03/23 04:28:55;;;;;;;4.75;2.88;;;12.60;70.60;;;;;;5053800;28;20780;-73
2023/03/23 04:31:25;;;;;;;4.05;2.90;;;12.60;70.80;;;;;;5053799;28;20401;-73
2023/03/23 04:33:52;;;;;;;3.95;2.95;;;12.70;68.70;;;;;;5054046;28;20883;-73
2023/03/23 04:36:18;;;;;;;5.80;2.90;;;12.70;69.40;;;;;;5054687;28;20382;-73
2023/03/23 04:38:43;;;;;;;5.00;3.22;;;12.80;68.00;;;;;;5054086;28;20890;-73
2023/03/23 04:41:09;;;;;;;4.80;3.22;;;12.90;67.20;;;;;;5054468;28;20402;-73
2023/03/23 04:43:41;;;;;;;7.43;3.30;;;12.80;67.90;;;;;;5053952;28;20428;-73
2023/03/23 04:46:10;;;;;;;3.45;2.92;;;12.80;68.20;;;;;;5053923;28;20397;-73
2023/03/23 04:48:38;;;;;;;3.90;2.80;;;12.80;67.30;;;;;;5054522;28;20463;-73
2023/03/23 04:51:04;;;;;;;5.93;3.38;;;12.80;67.10;;;;;;5050974;28;20452;-74
2023/03/23 04:53:31;;;;;;;5.20;3.10;;;12.80;66.70;;;;;;5053169;28;20480;-74
2023/03/23 04:55:56;;;;;;;5.18;3.35;;;12.90;65.40;;;;;;5053560;28;20396;-74
2023/03/23 04:58:24;;;;;;;3.90;3.35;;;12.90;64.90;;;;;;5053301;28;20821;-72
2023/03/23 05:00:50;;;;;;;5.07;2.60;;;12.90;64.80;;;;;;5058351;28;20397;-73
2023/03/23 05:03:17;;;;;;;4.60;2.78;;;13.10;62.50;;;;;;5068399;28;20901;-73
2023/03/23 05:05:46;;;;;;;4.20;2.88;;;13.10;61.40;;;;;;5061151;28;20484;-72
2023/03/23 05:08:13;;;;;;;5.07;3.20;;;13.10;62.10;;;;;;5059927;28;20467;-72
2023/03/23 05:10:38;;;;;;;3.72;2.90;;;13.20;60.90;;;;;;5057666;28;20409;-73
2023/03/23 05:13:04;;;;;;;4.60;2.93;;;13.10;61.00;;;;;;5058384;28;20469;-73
2023/03/23 05:15:30;;;;;;;3.10;2.80;;;13.20;60.00;;;;;;5058805;28;20369;-73
2023/03/23 05:17:56;;;;;;;5.85;3.00;;;13.20;60.30;;;;;;5057267;28;20392;-73
2023/03/23 05:20:22;;;;;;;4.10;2.80;;;13.20;59.40;;;;;;5054217;28;20378;-73
2023/03/23 05:22:49;;;;;;;5.60;2.50;;;13.20;60.60;;;;;;5052938;28;20421;-74
2023/03/23 05:25:18;;;;;;;4.30;3.10;;;13.10;61.20;;;;;;5053339;28;20395;-75
2023/03/23 05:27:48;;;;;;;5.60;3.33;;;13.20;60.40;;;;;;5052883;28;20472;-74
2023/03/23 05:30:16;;;;;;;8.07;2.90;;;13.20;58.90;;;;;;5052880;28;20885;-73
2023/03/23 05:32:45;;;;;;;3.60;3.10;;;13.30;58.20;;;;;;5051339;28;20385;-73
2023/03/23 05:35:11;;;;;;;4.10;2.53;;;13.20;57.90;;;;;;5052989;28;20408;-74
2023/03/23 05:37:38;;;;;;;4.90;2.70;;;13.20;57.90;;;;;;5052767;28;20813;-72
2023/03/23 05:40:08;;;;;;;6.63;3.10;;;13.20;59.00;;;;;;5052636;28;20389;-73
2023/03/23 05:42:34;;;;;;;4.32;3.03;;;13.20;57.70;;;;;;5051995;28;20381;-73
2023/03/23 05:45:01;;;;;;;8.20;3.35;;;13.30;57.60;;;;;;5052698;28;20378;-74
2023/03/23 05:47:27;;;;;;;6.93;3.30;;;13.30;57.70;;;;;;5053281;28;20904;-73
2023/03/23 05:49:53;;;;;;;5.97;3.22;;;13.30;57.40;;;;;;5052372;28;20424;-73
2023/03/23 05:52:20;;;;;;;5.30;2.85;;;13.30;57.10;;;;;;5052615;28;20378;-73
2023/03/23 05:54:46;;;;;;;6.20;3.08;;;13.40;56.40;;;;;;5052346;28;20389;-74
2023/03/23 05:57:11;;;;;;;4.28;3.50;;;13.40;55.50;;;;;;5052807;28;20385;-72
2023/03/23 05:59:37;;;;;;;7.78;3.30;;;13.40;56.00;;;;;;5052961;28;20385;-73
2023/03/23 06:02:04;;;;;;;5.18;2.60;;;13.30;56.60;;;;;;5052262;28;20417;-74
2023/03/23 06:04:29;;;;;;;4.70;2.87;;;13.40;56.50;;;;;;5050518;28;20507;-74
2023/03/23 06:06:55;;;;;;;7.07;3.33;;;13.40;54.80;;;;;;5050874;28;20484;-73
2023/03/23 06:09:23;;;;;;;5.35;3.08;;;13.40;54.50;;;;;;5051056;28;20451;-73
2023/03/23 06:11:49;;;;;;;4.07;3.10;;;13.40;54.50;;;;;;5051347;28;20365;-74
2023/03/23 06:14:14;;;;;;;5.90;3.33;;;13.40;55.20;;;;;;5045570;28;20768;-73
2023/03/23 06:16:40;;;;;;;4.93;3.20;;;13.30;55.10;;;;;;5050914;28;20393;-73
2023/03/23 06:19:05;;;;;;;5.37;3.03;;;13.50;52.50;;;;;;5051498;28;20879;-72
2023/03/23 06:21:32;;;;;;;4.10;2.80;;;13.50;51.40;;;;;;5051395;28;20474;-74
2023/03/23 06:23:59;;;;;;;7.68;3.10;;;13.50;52.90;;;;;;5051370;28;20393;-72
2023/03/23 06:26:30;;;;;;;7.65;3.60;;;13.60;51.20;;;;;;5046604;28;20471;-73
2023/03/23 06:28:57;;;;;;;7.00;3.10;;;13.70;50.20;;;;;;5045117;28;20491;-73
2023/03/23 06:31:24;;;;;;;8.55;3.03;;;13.60;50.30;;;;;;5051414;28;20394;-73
2023/03/23 06:33:50;;;;;;;4.27;2.53;;;13.40;51.10;;;;;;5050163;28;20760;-74
2023/03/23 06:36:16;;;;;;;5.57;2.60;;;13.50;51.20;;;;;;5045270;28;20412;-73
2023/03/23 06:38:42;;;;;;;8.02;3.40;;;13.60;50.70;;;;;;5034388;28;20399;-74
2023/03/23 06:41:08;;;;;;;5.07;2.77;;;13.60;50.80;;;;;;5047969;28;20420;-73
2023/03/23 06:43:36;;;;;;;9.40;2.90;;;13.80;46.50;;;;;;5049402;28;20806;-73
2023/03/23 06:46:01;;;;;;;5.03;2.90;;;13.80;47.00;;;;;;5049726;28;20389;-73
2023/03/23 06:48:27;;;;;;;4.93;2.90;;;13.70;48.20;;;;;;5049854;28;20423;-73
2023/03/23 06:50:53;;;;;;;10.30;2.90;;;13.60;48.60;;;;;;5050991;28;20416;-72
2023/03/23 06:53:20;;;;;;;7.10;2.83;;;13.70;48.50;;;;;;5047259;28;20388;-73
2023/03/23 06:55:46;;;;;;;8.80;2.80;;;13.60;48.90;;;;;;5049344;28;20736;-74
2023/03/23 06:58:12;;;;;;;6.00;2.78;;;13.80;46.90;;;;;;5049330;28;20463;-72
2023/03/23 07:00:39;;;;;;;7.32;2.67;;;13.80;46.80;;;;;;5048075;28;20401;-73
2023/03/23 07:03:05;;;;;;;4.20;2.60;;;13.90;46.20;;;;;;5049573;28;20548;-73
2023/03/23 07:05:32;;;;;;;7.65;2.60;;;13.90;45.90;;;;;;5047375;28;20448;-73
2023/03/23 07:07:58;;;;;;;7.23;3.00;;;13.90;45.10;;;;;;5049994;28;20378;-73
2023/03/23 07:10:24;;;;;;;6.47;2.70;;;13.80;45.80;;;;;;5049609;28;20782;-74
2023/03/23 07:12:50;;;;;;;6.05;2.50;;;13.90;45.10;;;;;;5050036;28;20468;-73
2023/03/23 07:15:16;;;;;;;5.82;2.65;;;13.90;45.20;;;;;;5047806;28;20393;-72
2023/03/23 07:17:41;;;;;;;5.25;2.50;;;13.90;44.70;;;;;;5049326;28;20385;-75
2023/03/23 07:20:07;;;;;;;4.25;2.40;;;13.90;44.60;;;;;;5049362;28;20398;-74
2023/03/23 07:22:35;;;;;;;8.73;2.70;;;14.00;44.20;;;;;;5049441;28;20394;-73
2023/03/23 07:25:00;;;;;;;4.87;2.47;;;14.10;44.20;;;;;;5049518;28;20435;-73
2023/03/23 07:27:26;;;;;;;5.80;3.10;;;14.20;43.50;;;;;;5049315;28;20393;-73
2023/03/23 07:29:51;;;;;;;6.77;2.53;;;14.20;42.60;;;;;;5048639;28;20480;-73
2023/03/23 07:32:17;;;;;;;6.10;2.57;;;14.30;43.00;;;;;;5047013;28;20405;-73
2023/03/23 07:34:43;;;;;;;11.05;2.70;;;14.30;42.20;;;;;;5050990;28;20408;-74
2023/03/23 07:37:08;;;;;;;6.05;2.78;;;14.30;41.90;;;;;;5052382;28;20893;-75
2023/03/23 07:39:35;;;;;;;8.20;2.28;;;14.20;43.40;;;;;;5050981;28;20381;-73
2023/03/23 07:42:01;;;;;;;4.00;2.20;;;14.30;41.50;;;;;;5048598;28;20432;-74
2023/03/23 07:44:27;;;;;;;6.95;2.78;;;14.40;41.40;;;;;;5050995;28;20859;-73
2023/03/23 07:46:52;;;;;;;8.02;2.40;;;14.30;41.50;;;;;;5047711;28;20404;-73
2023/03/23 07:49:19;;;;;;;8.15;2.60;;;14.30;41.10;;;;;;5048913;28;20385;-72
2023/03/23 07:51:45;;;;;;;6.10;2.50;;;14.30;40.70;;;;;;5050863;28;20860;-75
2023/03/23 07:54:11;;;;;;;4.53;2.10;;;14.40;39.20;;;;;;5047903;28;20394;-72
2023/03/23 07:56:39;;;;;;;6.68;2.50;;;14.60;39.30;;;;;;5048782;28;20391;-74
2023/03/23 07:59:06;;;;;;;6.15;2.30;;;14.50;39.40;;;;;;5047653;28;20862;-73
2023/03/23 08:01:32;;;;;;;7.22;2.13;;;14.50;39.00;;;;;;5048846;28;20400;-73
2023/03/23 08:03:57;;;;;;;6.15;2.40;;;14.60;37.90;;;;;;5049250;28;20424;-73
2023/03/23 08:06:27;;;;;;;7.95;2.50;;;14.60;37.80;;;;;;5048481;28;20917;-74
2023/03/23 08:08:53;;;;;;;7.38;2.63;;;14.60;37.90;;;;;;5049403;28;20381;-75
2023/03/23 08:11:19;;;;;;;9.25;2.75;;;14.80;37.10;;;;;;5048634;28;20886;-73
2023/03/23 08:13:46;;;;;;;4.53;2.50;;;14.90;36.60;;;;;;5047955;28;20503;-73
2023/03/23 08:16:13;;;;;;;7.20;2.40;;;15.10;35.40;;;;;;5048431;28;20526;-74
2023/03/23 08:18:39;;;;;;;6.55;2.67;;;15.10;34.80;;;;;;5047891;28;20486;-73
2023/03/23 08:21:08;;;;;;;9.00;2.45;;;15.10;34.50;;;;;;5048713;28;20798;-72
2023/03/23 08:23:36;;;;;;;8.45;2.22;;;15.30;33.80;;;;;;5048533;28;20882;-73
2023/03/23 08:26:06;;;;;;;6.25;2.40;;;15.30;33.50;;;;;;5048504;28;20921;-73
2023/03/23 08:28:32;;;;;;;10.38;2.20;;;15.30;33.20;;;;;;5052359;28;20495;-73
2023/03/23 08:30:58;;;;;;;10.15;2.70;;;15.50;32.60;;;;;;5051436;28;20458;-74
2023/03/23 08:33:23;;;;;;;5.40;1.80;;;15.60;32.40;;;;;;5051334;28;20393;-73
2023/03/23 08:35:57;;;;;;;7.50;2.60;;;15.60;32.10;;;;;;5050865;28;20399;-74
2023/03/23 08:38:23;;;;;;;3.40;1.90;;;15.40;32.40;;;;;;5044066;28;20946;-73
2023/03/23 08:40:50;;;;;;;6.78;2.35;;;15.30;32.20;;;;;;5053001;28;20782;-73
2023/03/23 08:43:16;;;;;;;10.40;2.55;;;15.30;32.50;;;;;;5052440;28;20452;-73
2023/03/23 08:45:41;;;;;;;7.35;2.30;;;15.30;32.80;;;;;;5052642;28;20393;-75
2023/03/23 08:48:07;;;;;;;9.30;2.40;;;15.40;31.80;;;;;;5051580;28;20394;-74
2023/03/23 08:50:33;;;;;;;5.60;2.25;;;15.40;32.90;;;;;;5051868;28;20800;-72
2023/03/23 08:52:59;;;;;;;10.82;2.75;;;15.30;32.90;;;;;;5051903;28;20388;-72
2023/03/23 08:55:26;;;;;;;5.90;2.40;;;15.30;32.50;;;;;;5049146;28;20454;-74
2023/03/23 08:57:51;;;;;;;9.80;2.42;;;15.30;33.30;;;;;;5051828;28;20869;-72
2023/03/23 09:00:20;;;;;;;6.72;2.80;;;15.20;32.90;;;;;;5051571;28;20504;-74
2023/03/23 09:02:49;;;;;;;11.07;2.38;;;15.00;33.70;;;;;;5050007;28;20400;-73
2023/03/23 09:05:16;;;;;;;7.77;1.90;;;15.00;33.90;;;;;;5051274;28;20976;-74
2023/03/23 09:07:47;;;;;;;8.07;2.30;;;14.90;34.60;;;;;;5060142;28;20429;-74
2023/03/23 09:10:14;;;;;;;11.52;2.85;;;15.10;33.40;;;;;;5052230;28;20409;-73
2023/03/23 09:12:40;;;;;;;4.95;2.60;;;14.90;33.70;;;;;;5050779;28;20397;-75
2023/03/23 09:15:08;;;;;;;8.48;2.47;;;15.00;33.00;;;;;;5051327;28;20385;-72
2023/03/23 09:17:39;;;;;;;8.55;2.38;;;15.00;33.80;;;;;;5050851;28;20408;-73
2023/03/23 09:20:13;;;;;;;7.40;2.40;;;15.10;33.00;;;;;;5050540;28;20394;-73
2023/03/23 09:22:40;;;;;;;6.97;2.70;;;15.20;32.80;;;;;;5050635;28;20471;-74
2023/03/23 09:25:08;;;;;;;6.03;2.38;;;15.40;32.20;;;;;;5050462;28;20469;-73
2023/03/23 09:27:36;;;;;;;6.05;2.40;;;15.50;32.10;;;;;;5050862;28;20389;-74
2023/03/23 09:30:05;;;;;;;10.07;2.75;;;15.50;31.40;;;;;;5046388;28;20504;-74
2023/03/23 09:32:35;;;;;;;9.35;2.58;;;15.30;31.90;;;;;;5030615;28;20453;-74
2023/03/23 09:35:01;;;;;;;6.03;2.15;;;15.20;32.20;;;;;;5034361;28;20404;-74
2023/03/23 09:37:27;;;;;;;11.40;2.30;;;15.20;33.00;;;;;;5049254;28;20856;-74
2023/03/23 09:39:53;;;;;;;16.83;2.50;;;15.00;33.10;;;;;;5050302;28;20424;-74
2023/03/23 09:42:46;;;;;;;6.43;2.95;;;15.00;33.00;;;;;;5050347;28;20484;-73
2023/03/23 09:45:11;;;;;;;9.10;2.30;;;15.10;32.90;;;;;;5049486;28;20510;-73
2023/03/23 09:48:05;;;;;;;8.55;2.70;;;15.00;32.30;;;;;;5044758;28;20396;-75
2023/03/23 09:50:34;;;;;;;11.55;3.03;;;15.10;32.40;;;;;;5050242;28;20467;-73
2023/03/23 09:53:15;;;;;;;10.15;2.67;;;15.10;32.40;;;;;;5052022;28;20374;-73
2023/03/23 09:55:42;;;;;;;8.85;2.40;;;15.00;32.20;;;;;;5052329;28;20443;-74
2023/03/23 09:58:35;;;;;;;6.82;2.50;;;14.90;32.80;;;;;;5051337;28;20394;-74
2023/03/23 10:01:23;;;;;;;4.30;1.53;;;14.40;38.00;;;;;;5047585;28;20393;-72
2023/03/23 10:03:52;;;;;;;2.30;1.08;;;13.40;49.80;;;;;;5043723;28;20427;-74
2023/03/23 10:06:18;;;;;;;7.22;1.30;;;12.30;62.70;;;;;;5034875;28;20461;-74
2023/03/23 10:08:57;;;;;;;3.50;1.40;;;11.90;72.30;;;;;;5052410;28;20468;-75
2023/03/23 10:11:40;;;;;;;6.45;1.42;;;11.60;76.80;;;;;;5052048;28;20543;-73
2023/03/23 10:14:31;;;;;;;8.35;2.17;;;11.20;85.10;;;;;;5034990;28;20383;-74
2023/03/23 10:17:13;;;;;;;3.30;1.50;;;11.30;88.00;;;;;;5053235;28;20385;-73
2023/03/23 10:19:45;;;;;;;5.75;1.80;;;11.10;92.70;;;;;;5053894;28;20500;-73
2023/03/23 10:22:14;;;;;;;6.40;2.50;;;11.20;93.40;;;;;;5052586;28;20742;-74
2023/03/23 10:24:49;;;;;;;7.95;2.35;;;11.30;90.40;;;;;;5053375;28;20443;-75
2023/03/23 10:27:18;;;;;;;5.00;1.77;;;11.30;86.80;;;;;;5050511;28;20412;-75
2023/03/23 10:30:13;;;;;;;3.95;1.80;;;11.30;87.10;;;;;;5052173;28;20405;-74
2023/03/23 10:32:56;;;;;;;5.93;2.40;;;11.40;91.20;;;;;;5033324;28;20411;-74
2023/03/23 10:35:44;;;;;;;3.60;1.23;;;11.50;84.10;;;;;;5051066;28;20793;-72
2023/03/23 10:38:21;;;;;;;5.87;1.80;;;11.50;84.50;;;;;;5039000;28;20486;-72
2023/03/23 10:40:55;;;;;;;3.50;1.80;;;11.30;90.80;;;;;;5052603;28;20503;-74
2023/03/23 10:43:21;;;;;;;3.58;1.58;;;11.20;90.60;;;;;;5051161;28;20405;-74
2023/03/23 10:46:02;;;;;;;4.60;1.52;;;11.10;92.60;;;;;;5052243;28;20393;-74
2023/03/23 10:48:36;;;;;;;6.53;1.40;;;11.00;94.00;;;;;;5051066;28;20803;-73
2023/03/23 10:51:06;;;;;;;3.08;1.38;;;11.10;93.50;;;;;;5052104;28;20933;-73
2023/03/23 10:53:47;;;;;;;6.28;1.80;;;11.20;92.00;;;;;;5051637;28;20397;-75
2023/03/23 10:56:25;;;;;;;3.40;1.40;;;11.20;89.70;;;;;;5052136;28;20455;-74
2023/03/23 10:58:51;;;;;;;8.18;2.55;;;11.20;90.30;;;;;;5051147;28;20377;-73
2023/03/23 11:01:20;;;;;;;6.03;2.00;;;11.30;90.20;;;;;;5051860;28;20456;-75
2023/03/23 11:03:48;;;;;;;4.70;1.40;;;11.30;88.20;;;;;;5051374;28;20413;-73
2023/03/23 11:06:35;;;;;;;5.82;2.10;;;11.10;89.90;;;;;;5056654;28;20409;-74
2023/03/23 11:09:12;;;;;;;5.10;2.00;;;11.10;90.70;;;;;;5052035;28;20492;-73
2023/03/23 11:11:42;;;;;;;6.68;1.60;;;11.30;91.30;;;;;;5050808;28;20448;-73
2023/03/23 11:14:24;;;;;;;4.50;1.50;;;11.60;86.90;;;;;;5051348;28;20787;-74
2023/03/23 11:16:55;;;;;;;4.38;1.73;;;11.60;87.10;;;;;;5050369;28;20397;-73
2023/03/23 11:19:24;;;;;;;2.72;1.27;;;11.50;88.80;;;;;;5050353;28;20870;-73
2023/03/23 11:22:00;;;;;;;5.20;1.33;;;11.60;82.60;;;;;;5051127;28;20440;-76
2023/03/23 11:24:26;;;;;;;4.90;1.58;;;11.50;86.80;;;;;;5051671;28;20388;-74
2023/03/23 11:26:53;;;;;;;4.00;1.30;;;11.80;84.60;;;;;;5049748;28;20392;-73
2023/03/23 11:29:24;;;;;;;2.85;1.33;;;11.90;85.00;;;;;;5050160;28;20465;-75
2023/03/23 11:32:05;;;;;;;4.07;1.33;;;12.20;79.10;;;;;;5051534;28;20393;-75
2023/03/23 11:34:35;;;;;;;3.60;1.60;;;12.60;75.30;;;;;;5050372;28;20496;-74
2023/03/23 11:37:07;;;;;;;2.78;1.50;;;12.60;71.70;;;;;;5051023;28;20381;-75
2023/03/23 11:39:45;;;;;;;5.90;1.50;;;12.50;71.90;;;;;;5052083;28;20589;-71
2023/03/23 11:42:18;;;;;;;4.80;1.98;;;12.40;79.40;;;;;;5051814;28;20381;-74
2023/03/23 11:44:47;;;;;;;3.75;2.00;;;12.20;78.60;;;;;;5050565;28;20377;-73
2023/03/23 11:47:29;;;;;;;5.50;2.60;;;12.40;78.50;;;;;;5051726;28;20386;-75
2023/03/23 11:50:03;;;;;;;8.68;2.60;;;12.50;80.00;;;;;;5052368;28;20405;-74
2023/03/23 11:52:52;;;;;;;5.80;2.42;;;12.70;81.70;;;;;;5051753;28;20939;-73
2023/03/23 11:55:25;;;;;;;6.95;2.50;;;13.00;81.20;;;;;;5051962;28;20465;-73
2023/03/23 11:57:52;;;;;;;3.70;2.10;;;13.10;77.60;;;;;;5051687;28;20575;-75
2023/03/23 12:00:20;;;;;;;3.70;2.10;;;12.80;79.70;;;;;;5050519;28;20436;-72
2023/03/23 12:02:57;;;;;;;4.70;2.40;;;12.80;76.30;;;;;;5055867;28;20385;-74
2023/03/23 12:05:40;;;;;;;4.63;2.33;;;13.00;78.10;;;;;;5055946;28;20389;-73
2023/03/23 12:08:32;;;;;;;4.55;2.90;;;13.30;71.90;;;;;;5057063;28;20810;-74
2023/03/23 12:11:23;;;;;;;6.22;3.30;;;13.00;74.80;;;;;;5056621;28;20512;-73
2023/03/23 12:14:10;;;;;;;5.35;3.00;;;12.80;81.70;;;;;;5058890;28;20377;-74
2023/03/23 12:16:44;;;;;;;4.60;2.70;;;12.90;79.90;;;;;;5061402;28;20476;-73
2023/03/23 12:19:33;;;;;;;3.77;2.90;;;13.20;72.20;;;;;;5063300;28;20403;-74
2023/03/23 12:22:06;;;;;;;7.80;3.53;;;13.10;79.30;;;;;;5061880;28;20766;-74
2023/03/23 12:24:41;;;;;;;4.30;3.22;;;13.20;81.20;;;;;;5060688;28;20377;-73
2023/03/23 12:27:33;;;;;;;5.68;3.20;;;13.60;75.10;;;;;;5066936;28;20389;-74
2023/03/23 12:30:13;;;;;;;8.52;3.50;;;13.70;71.70;;;;;;5055234;28;20447;-74
2023/03/23 12:33:17;;;;;;;3.43;2.60;;;13.90;68.70;;;;;;5055054;28;20373;-73
2023/03/23 12:36:04;;;;;;;6.20;3.30;;;13.70;67.90;;;;;;5054143;28;20461;-75
2023/03/23 12:38:50;;;;;;;7.40;3.75;;;13.70;68.30;;;;;;5055393;28;20455;-73
2023/03/23 12:41:19;;;;;;;8.80;4.13;;;13.60;71.70;;;;;;5054596;28;20896;-73
2023/03/23 12:43:53;;;;;;;6.45;3.45;;;13.30;80.20;;;;;;5055293;28;20870;-72
2023/03/23 12:46:46;;;;;;;5.35;3.10;;;13.60;76.60;;;;;;5055781;28;20907;-74
2023/03/23 12:49:22;;;;;;;5.93;3.65;;;14.00;70.40;;;;;;5055561;28;20472;-74
2023/03/23 12:52:11;;;;;;;6.05;3.03;;;13.80;73.40;;;;;;5055275;28;20427;-73
2023/03/23 12:54:45;;;;;;;5.57;3.80;;;14.00;71.20;;;;;;5054929;28;20373;-73
2023/03/23 12:57:17;;;;;;;4.55;3.90;;;14.10;72.50;;;;;;5055271;28;20435;-74
2023/03/23 13:00:20;;;;;;;9.55;5.20;;;14.00;74.40;;;;;;5054895;28;20861;-73
2023/03/23 13:03:03;;;;;;;6.10;4.10;;;14.00;76.10;;;;;;5055090;28;20397;-74